createdAt,value
2019-04-07T00:00:03.820Z,0
2019-04-07T00:01:18.126Z,0
2019-04-07T00:02:32.172Z,0
2019-04-07T00:03:46.361Z,0
2019-04-07T00:05:00.544Z,0
2019-04-07T00:06:14.746Z,0
2019-04-07T00:07:28.926Z,0
2019-04-07T00:08:43.114Z,0
2019-04-07T00:09:57.309Z,0
2019-04-07T00:11:11.473Z,0
2019-04-07T00:12:25.677Z,0
2019-04-07T00:13:39.957Z,0
2019-04-07T00:14:54.113Z,0
2019-04-07T00:16:08.254Z,0
2019-04-07T00:17:22.410Z,0
2019-04-07T00:18:36.607Z,0
2019-04-07T00:19:50.794Z,0
2019-04-07T00:21:05.084Z,0
2019-04-07T00:22:19.171Z,0
2019-04-07T00:23:34.784Z,0
2019-04-07T00:24:47.566Z,0
2019-04-07T00:26:01.745Z,0
2019-04-07T00:27:16.012Z,0
2019-04-07T00:28:30.150Z,0
2019-04-07T00:29:44.330Z,0
2019-04-07T00:30:58.480Z,0
2019-04-07T00:32:12.667Z,0
2019-04-07T00:33:26.932Z,0
2019-04-07T00:34:41.039Z,0
2019-04-07T00:35:55.251Z,0
2019-04-07T00:37:09.596Z,0
2019-04-07T00:38:23.634Z,0
2019-04-07T00:39:37.921Z,0
2019-04-07T00:40:53.157Z,0
2019-04-07T00:42:06.214Z,0
2019-04-07T00:43:20.379Z,0
2019-04-07T00:44:34.564Z,0
2019-04-07T00:45:48.788Z,0
2019-04-07T00:47:02.939Z,0
2019-04-07T00:48:17.163Z,0
2019-04-07T00:49:31.390Z,0
2019-04-07T00:50:45.596Z,0
2019-04-07T00:51:59.755Z,0
2019-04-07T00:53:13.920Z,0
2019-04-07T00:54:28.049Z,0
2019-04-07T00:55:42.355Z,0
2019-04-07T00:56:56.516Z,0
2019-04-07T00:58:10.692Z,0
2019-04-07T00:59:24.885Z,0
2019-04-07T01:00:38.969Z,0
2019-04-07T01:01:53.259Z,0
2019-04-07T01:03:07.353Z,0
2019-04-07T01:04:21.599Z,0
2019-04-07T01:05:35.726Z,0
2019-04-07T01:06:49.958Z,0
2019-04-07T01:08:04.199Z,0
2019-04-07T01:09:18.336Z,0
2019-04-07T01:10:32.600Z,0
2019-04-07T01:11:46.761Z,0
2019-04-07T01:13:00.898Z,0
2019-04-07T01:14:15.174Z,0
2019-04-07T01:15:29.261Z,0
2019-04-07T01:16:43.450Z,0
2019-04-07T01:17:57.663Z,0
2019-04-07T01:19:11.849Z,0
2019-04-07T01:20:26.098Z,0
2019-04-07T01:21:40.304Z,0
2019-04-07T01:22:54.428Z,0
2019-04-07T01:24:08.710Z,0
2019-04-07T01:25:22.793Z,0
2019-04-07T01:26:37.018Z,0
2019-04-07T01:27:51.301Z,0
2019-04-07T01:29:05.411Z,0
2019-04-07T01:30:19.625Z,0
2019-04-07T01:31:33.778Z,0
2019-04-07T01:32:47.951Z,0
2019-04-07T01:34:02.182Z,0
2019-04-07T01:35:16.457Z,0
2019-04-07T01:36:30.599Z,0
2019-04-07T01:37:44.749Z,0
2019-04-07T01:38:59.019Z,0
2019-04-07T01:40:13.287Z,0
2019-04-07T01:41:30.868Z,0
2019-04-07T01:42:41.541Z,0
2019-04-07T01:43:55.752Z,0
2019-04-07T01:45:10.073Z,0
2019-04-07T01:46:24.167Z,0
2019-04-07T01:47:38.338Z,0
2019-04-07T01:48:52.559Z,0
2019-04-07T01:50:06.738Z,0
2019-04-07T01:51:21.175Z,0
2019-04-07T01:52:35.367Z,0
2019-04-07T01:53:49.406Z,0
2019-04-07T01:55:03.512Z,0
2019-04-07T01:56:17.706Z,0
2019-04-07T01:57:31.949Z,0
2019-04-07T01:58:46.130Z,0
2019-04-07T02:00:01.553Z,0
2019-04-07T02:01:14.493Z,0
2019-04-07T02:02:28.700Z,0
2019-04-07T02:03:43.046Z,0
2019-04-07T02:04:57.077Z,0
2019-04-07T02:06:11.284Z,0
2019-04-07T02:07:25.443Z,0
2019-04-07T02:08:39.707Z,0
2019-04-07T02:09:53.844Z,0
2019-04-07T02:11:08.034Z,0
2019-04-07T02:12:22.257Z,0
2019-04-07T02:13:36.530Z,0
2019-04-07T02:14:50.746Z,0
2019-04-07T02:16:04.787Z,0
2019-04-07T02:17:18.978Z,0
2019-04-07T02:18:33.159Z,0
2019-04-07T02:19:47.355Z,0
2019-04-07T02:21:01.558Z,0
2019-04-07T02:22:15.776Z,0
2019-04-07T02:23:29.908Z,0
2019-04-07T02:24:44.584Z,0
2019-04-07T02:25:58.304Z,0
2019-04-07T02:27:12.493Z,0
2019-04-07T02:28:26.688Z,0
2019-04-07T02:29:41.006Z,0
2019-04-07T02:30:55.124Z,0
2019-04-07T02:32:09.313Z,0
2019-04-07T02:33:23.496Z,0
2019-04-07T02:34:37.673Z,0
2019-04-07T02:35:51.851Z,0
2019-04-07T02:38:20.464Z,0
2019-04-07T02:39:34.413Z,0
2019-04-07T02:40:48.623Z,0
2019-04-07T02:42:02.798Z,0
2019-04-07T02:43:17.015Z,0
2019-04-07T02:44:31.206Z,0
2019-04-07T02:45:45.385Z,0
2019-04-07T02:46:59.554Z,0
2019-04-07T02:48:13.745Z,0
2019-04-07T02:49:27.949Z,0
2019-04-07T02:50:42.132Z,0
2019-04-07T02:51:56.358Z,0
2019-04-07T02:53:10.605Z,0
2019-04-07T02:54:24.732Z,0
2019-04-07T02:55:38.916Z,0
2019-04-07T02:56:53.089Z,0
2019-04-07T02:58:07.292Z,0
2019-04-07T02:59:21.587Z,0
2019-04-07T03:00:35.770Z,0
2019-04-07T03:01:49.864Z,0
2019-04-07T03:03:04.051Z,0
2019-04-07T03:04:18.249Z,0
2019-04-07T03:05:32.448Z,0
2019-04-07T03:06:47.049Z,0
2019-04-07T03:08:00.892Z,0
2019-04-07T03:09:15.049Z,0
2019-04-07T03:10:29.224Z,0
2019-04-07T03:11:43.520Z,0
2019-04-07T03:12:57.618Z,0
2019-04-07T03:14:11.910Z,0
2019-04-07T03:15:26.040Z,0
2019-04-07T03:16:40.278Z,0
2019-04-07T03:17:54.421Z,0
2019-04-07T03:19:08.655Z,0
2019-04-07T03:20:22.930Z,0
2019-04-07T03:21:37.056Z,0
2019-04-07T03:22:51.383Z,0
2019-04-07T03:24:05.507Z,0
2019-04-07T03:25:22.490Z,0
2019-04-07T03:26:34.959Z,0
2019-04-07T03:27:48.056Z,0
2019-04-07T03:29:02.338Z,0
2019-04-07T03:30:16.469Z,0
2019-04-07T03:31:30.842Z,0
2019-04-07T03:32:44.847Z,0
2019-04-07T03:33:59.109Z,0
2019-04-07T03:35:13.309Z,0
2019-04-07T03:36:27.589Z,0
2019-04-07T03:37:41.738Z,0
2019-04-07T03:38:55.876Z,0
2019-04-07T03:40:10.121Z,0
2019-04-07T03:41:24.271Z,0
2019-04-07T03:42:38.573Z,0
2019-04-07T03:43:52.786Z,0
2019-04-07T03:45:06.876Z,0
2019-04-07T03:46:21.327Z,0
2019-04-07T03:47:35.381Z,0
2019-04-07T03:48:49.484Z,0
2019-04-07T03:50:03.682Z,0
2019-04-07T03:51:17.872Z,0
2019-04-07T03:52:32.082Z,0
2019-04-07T03:53:46.258Z,0
2019-04-07T03:55:00.490Z,0
2019-04-07T03:56:14.639Z,0
2019-04-07T03:57:28.913Z,0
2019-04-07T03:58:43.067Z,0
2019-04-07T03:59:57.338Z,0
2019-04-07T04:01:11.497Z,0
2019-04-07T04:02:25.636Z,0
2019-04-07T04:03:39.833Z,0
2019-04-07T04:04:54.028Z,0
2019-04-07T04:06:08.210Z,0
2019-04-07T04:07:22.531Z,0
2019-04-07T04:08:36.715Z,0
2019-04-07T04:09:50.918Z,0
2019-04-07T04:11:05.029Z,0
2019-04-07T04:12:19.338Z,0
2019-04-07T04:13:37.036Z,0
2019-04-07T04:14:47.731Z,0
2019-04-07T04:16:01.855Z,0
2019-04-07T04:17:16.083Z,4
2019-04-07T04:18:30.312Z,4
2019-04-07T04:19:44.459Z,0
2019-04-07T04:20:58.766Z,4
2019-04-07T04:22:12.887Z,4
2019-04-07T04:23:27.158Z,8
2019-04-07T04:24:41.399Z,8
2019-04-07T04:25:55.485Z,8
2019-04-07T04:27:09.705Z,8
2019-04-07T04:28:23.924Z,12
2019-04-07T04:29:38.120Z,16
2019-04-07T04:30:52.359Z,16
2019-04-07T04:32:06.569Z,24
2019-04-07T04:33:21.038Z,32
2019-04-07T04:34:35.022Z,36
2019-04-07T04:35:49.161Z,44
2019-04-07T04:37:04.565Z,56
2019-04-07T04:38:17.564Z,68
2019-04-07T04:39:31.779Z,80
2019-04-07T04:40:46.035Z,100
2019-04-07T04:42:00.193Z,112
2019-04-07T04:43:14.392Z,136
2019-04-07T04:44:28.610Z,156
2019-04-07T04:45:42.793Z,180
2019-04-07T04:46:56.997Z,208
2019-04-07T04:48:11.223Z,236
2019-04-07T04:49:25.409Z,272
2019-04-07T04:50:39.635Z,304
2019-04-07T04:51:53.840Z,348
2019-04-07T04:53:08.050Z,388
2019-04-07T04:54:22.253Z,436
2019-04-07T04:55:36.526Z,484
2019-04-07T04:56:50.821Z,532
2019-04-07T04:58:04.868Z,588
2019-04-07T04:59:19.065Z,640
2019-04-07T05:00:33.321Z,696
2019-04-07T05:01:47.475Z,756
2019-04-07T05:03:01.752Z,816
2019-04-07T05:04:15.985Z,880
2019-04-07T05:05:30.250Z,940
2019-04-07T05:06:44.329Z,1000
2019-04-07T05:07:58.498Z,1064
2019-04-07T05:09:12.696Z,1124
2019-04-07T05:10:26.913Z,1192
2019-04-07T05:11:41.221Z,1260
2019-04-07T05:12:55.307Z,1344
2019-04-07T05:14:09.507Z,1432
2019-04-07T05:15:23.785Z,1532
2019-04-07T05:16:38.004Z,1632
2019-04-07T05:17:52.135Z,1740
2019-04-07T05:19:06.384Z,1852
2019-04-07T05:20:20.627Z,1968
2019-04-07T05:21:35.128Z,2084
2019-04-07T05:22:48.966Z,2196
2019-04-07T05:24:03.282Z,2312
2019-04-07T05:25:17.387Z,2416
2019-04-07T05:26:31.609Z,2520
2019-04-07T05:27:45.802Z,2624
2019-04-07T05:29:00.091Z,2724
2019-04-07T05:30:14.288Z,2816
2019-04-07T05:31:28.400Z,2912
2019-04-07T05:32:42.626Z,3008
2019-04-07T05:33:56.820Z,3104
2019-04-07T05:35:11.094Z,3204
2019-04-07T05:36:25.262Z,3304
2019-04-07T05:37:39.505Z,3404
2019-04-07T05:38:53.679Z,3496
2019-04-07T05:40:07.823Z,3592
2019-04-07T05:41:22.020Z,3700
2019-04-07T05:42:36.270Z,3844
2019-04-07T05:43:50.469Z,3980
2019-04-07T05:45:04.641Z,4064
2019-04-07T05:46:18.951Z,4136
2019-04-07T05:47:33.072Z,4212
2019-04-07T05:48:47.288Z,4372
2019-04-07T05:50:01.518Z,4540
2019-04-07T05:51:15.840Z,4692
2019-04-07T05:52:29.831Z,4820
2019-04-07T05:53:44.031Z,4928
2019-04-07T05:54:58.611Z,5032
2019-04-07T05:56:12.392Z,5136
2019-04-07T05:57:26.738Z,5236
2019-04-07T05:58:40.803Z,5336
2019-04-07T05:59:54.995Z,5452
2019-04-07T06:01:09.224Z,5548
2019-04-07T06:02:23.316Z,5652
2019-04-07T06:03:37.504Z,5760
2019-04-07T06:04:51.692Z,5860
2019-04-07T06:06:06.018Z,5952
2019-04-07T06:07:20.055Z,6048
2019-04-07T06:08:34.262Z,6136
2019-04-07T06:09:48.449Z,6236
2019-04-07T06:11:02.584Z,6332
2019-04-07T06:12:16.723Z,6420
2019-04-07T06:13:31.232Z,6500
2019-04-07T06:14:45.127Z,6568
2019-04-07T06:15:59.239Z,6640
2019-04-07T06:17:13.532Z,6724
2019-04-07T06:18:27.612Z,6820
2019-04-07T06:19:41.832Z,6916
2019-04-07T06:20:56.071Z,7008
2019-04-07T06:22:10.192Z,7060
2019-04-07T06:23:24.330Z,7172
2019-04-07T06:24:38.496Z,7264
2019-04-07T06:25:52.624Z,7352
2019-04-07T06:27:07.439Z,7436
2019-04-07T06:28:21.095Z,7532
2019-04-07T06:29:35.266Z,7624
2019-04-07T06:30:49.243Z,7716
2019-04-07T06:32:03.522Z,7832
2019-04-07T06:33:18.726Z,7936
2019-04-07T06:34:31.990Z,8056
2019-04-07T06:35:45.918Z,8128
2019-04-07T06:37:00.164Z,8272
2019-04-07T06:38:14.261Z,8364
2019-04-07T06:39:28.373Z,8396
2019-04-07T06:40:42.535Z,8456
2019-04-07T06:41:56.696Z,8500
2019-04-07T06:43:10.938Z,8544
2019-04-07T06:44:25.086Z,8612
2019-04-07T06:45:39.155Z,8672
2019-04-07T06:46:53.302Z,8720
2019-04-07T06:48:07.677Z,8824
2019-04-07T06:49:21.700Z,8964
2019-04-07T06:50:35.803Z,9092
2019-04-07T06:51:49.960Z,9200
2019-04-07T06:53:04.084Z,9296
2019-04-07T06:54:18.222Z,9408
2019-04-07T06:55:32.352Z,9500
2019-04-07T06:56:46.539Z,9628
2019-04-07T06:58:00.621Z,9708
2019-04-07T06:59:14.742Z,9848
2019-04-07T07:00:28.974Z,9980
2019-04-07T07:01:43.059Z,10072
2019-04-07T07:02:57.186Z,10244
2019-04-07T07:04:11.350Z,10336
2019-04-07T07:05:25.433Z,10476
2019-04-07T07:06:39.840Z,10612
2019-04-07T07:07:53.726Z,10676
2019-04-07T07:09:07.851Z,10792
2019-04-07T07:10:22.043Z,10976
2019-04-07T07:11:36.123Z,11148
2019-04-07T07:12:50.293Z,11420
2019-04-07T07:14:04.358Z,11668
2019-04-07T07:15:18.567Z,12128
2019-04-07T07:16:32.689Z,12264
2019-04-07T07:17:46.775Z,11920
2019-04-07T07:19:00.950Z,11764
2019-04-07T07:20:15.001Z,11848
2019-04-07T07:21:29.123Z,11912
2019-04-07T07:22:43.248Z,11904
2019-04-07T07:23:57.376Z,11996
2019-04-07T07:25:12.192Z,12092
2019-04-07T07:26:25.722Z,12276
2019-04-07T07:27:39.804Z,12516
2019-04-07T07:28:53.840Z,12732
2019-04-07T07:30:08.003Z,12964
2019-04-07T07:31:22.173Z,13328
2019-04-07T07:32:36.209Z,13504
2019-04-07T07:33:50.456Z,13788
2019-04-07T07:35:04.611Z,14312
2019-04-07T07:36:18.526Z,13912
2019-04-07T07:37:32.648Z,13792
2019-04-07T07:38:46.766Z,16220
2019-04-07T07:40:00.875Z,16092
2019-04-07T07:41:14.992Z,16908
2019-04-07T07:42:29.257Z,19232
2019-04-07T07:43:43.198Z,19040
2019-04-07T07:44:57.316Z,19584
2019-04-07T07:46:11.400Z,19872
2019-04-07T07:47:25.658Z,20448
2019-04-07T07:48:39.601Z,20576
2019-04-07T07:49:53.801Z,21024
2019-04-07T07:51:07.899Z,21344
2019-04-07T07:52:22.142Z,21600
2019-04-07T07:53:36.043Z,21824
2019-04-07T07:54:50.221Z,22304
2019-04-07T07:56:04.294Z,22656
2019-04-07T07:57:18.366Z,22560
2019-04-07T07:58:32.451Z,22816
2019-04-07T07:59:47.085Z,23456
2019-04-07T08:01:00.676Z,23296
2019-04-07T08:02:14.817Z,23328
2019-04-07T08:03:28.850Z,23744
2019-04-07T08:04:42.995Z,24576
2019-04-07T08:05:57.059Z,25376
2019-04-07T08:07:11.165Z,25280
2019-04-07T08:08:25.264Z,25664
2019-04-07T08:09:39.406Z,26080
2019-04-07T08:10:53.477Z,25472
2019-04-07T08:12:07.542Z,25824
2019-04-07T08:13:21.697Z,25664
2019-04-07T08:14:35.758Z,25472
2019-04-07T08:15:49.965Z,28000
2019-04-07T08:17:03.948Z,29696
2019-04-07T08:18:18.032Z,29952
2019-04-07T08:19:32.132Z,30720
2019-04-07T08:20:46.208Z,29856
2019-04-07T08:22:00.413Z,30368
2019-04-07T08:23:15.718Z,30720
2019-04-07T08:24:28.483Z,31424
2019-04-07T08:25:42.594Z,32672
2019-04-07T08:26:56.639Z,33248
2019-04-07T08:28:10.827Z,32704
2019-04-07T08:29:24.855Z,33088
2019-04-07T08:30:38.926Z,33888
2019-04-07T08:31:53.041Z,33728
2019-04-07T08:33:07.123Z,34880
2019-04-07T08:34:21.205Z,36704
2019-04-07T08:35:35.532Z,37920
2019-04-07T08:36:49.422Z,38592
2019-04-07T08:38:03.629Z,39392
2019-04-07T08:39:17.585Z,39360
2019-04-07T08:40:33.581Z,39168
2019-04-07T08:41:45.734Z,39776
2019-04-07T08:42:59.822Z,39648
2019-04-07T08:44:13.914Z,39424
2019-04-07T08:45:27.999Z,39584
2019-04-07T08:46:42.093Z,39040
2019-04-07T08:47:56.149Z,39744
2019-04-07T08:49:10.229Z,40896
2019-04-07T08:50:24.343Z,41632
2019-04-07T08:51:38.432Z,41376
2019-04-07T08:52:52.452Z,40256
2019-04-07T08:54:06.581Z,37984
2019-04-07T08:55:20.612Z,37888
2019-04-07T08:56:34.752Z,40448
2019-04-07T08:57:48.838Z,42496
2019-04-07T08:59:02.832Z,42688
2019-04-07T09:00:16.927Z,43264
2019-04-07T09:01:31.000Z,43200
2019-04-07T09:02:45.072Z,43104
2019-04-07T09:03:59.122Z,44512
2019-04-07T09:05:13.528Z,45408
2019-04-07T09:06:27.289Z,45248
2019-04-07T09:07:41.357Z,44768
2019-04-07T09:08:55.451Z,45696
2019-04-07T09:10:09.487Z,47392
2019-04-07T09:11:23.564Z,48320
2019-04-07T09:12:37.607Z,48544
2019-04-07T09:13:51.672Z,47488
2019-04-07T09:15:05.731Z,44384
2019-04-07T09:16:19.809Z,44192
2019-04-07T09:17:33.863Z,46816
2019-04-07T09:18:47.934Z,48608
2019-04-07T09:20:02.032Z,48448
2019-04-07T09:21:16.129Z,48384
2019-04-07T09:22:30.129Z,48800
2019-04-07T09:23:44.233Z,48896
2019-04-07T09:24:58.248Z,49856
2019-04-07T09:26:12.284Z,50880
2019-04-07T09:27:26.420Z,52832
2019-04-07T09:28:40.410Z,53888
2019-04-07T09:29:54.474Z,52896
2019-04-07T09:31:08.551Z,52640
2019-04-07T09:32:22.722Z,51648
2019-04-07T09:33:36.653Z,52128
2019-04-07T09:34:50.711Z,50656
2019-04-07T09:36:04.956Z,50080
2019-04-07T09:37:19.625Z,52160
2019-04-07T09:38:32.861Z,53184
2019-04-07T09:39:46.905Z,53184
2019-04-07T09:41:00.958Z,53792
2019-04-07T09:42:14.983Z,55008
2019-04-07T09:43:29.039Z,56384
2019-04-07T09:44:43.156Z,56512
2019-04-07T09:45:57.110Z,55712
2019-04-07T09:47:11.172Z,56512
2019-04-07T09:48:25.300Z,56832
2019-04-07T09:49:39.258Z,59168
2019-04-07T09:50:53.388Z,59968
2019-04-07T09:52:07.349Z,60640
2019-04-07T09:53:21.660Z,60928
2019-04-07T09:55:49.501Z,62240
2019-04-07T09:57:03.526Z,62752
2019-04-07T09:58:17.605Z,63264
2019-04-07T09:59:31.747Z,60832
2019-04-07T10:00:45.744Z,59808
2019-04-07T10:01:59.846Z,59584
2019-04-07T10:03:13.771Z,61280
2019-04-07T10:04:27.806Z,62816
2019-04-07T10:05:41.854Z,63744
2019-04-07T10:06:56.248Z,64864
2019-04-07T10:08:09.975Z,64736
2019-04-07T10:09:24.002Z,66112
2019-04-07T10:10:38.041Z,64256
2019-04-07T10:11:52.158Z,63232
2019-04-07T10:13:06.159Z,64928
2019-04-07T10:14:20.268Z,67776
2019-04-07T10:15:34.334Z,68448
2019-04-07T10:16:48.377Z,70368
2019-04-07T10:18:02.422Z,68672
2019-04-07T10:19:16.405Z,68928
2019-04-07T10:20:30.447Z,67488
2019-04-07T10:21:44.525Z,67424
2019-04-07T10:22:58.588Z,66816
2019-04-07T10:24:12.712Z,69344
2019-04-07T10:25:26.984Z,69856
2019-04-07T10:26:40.695Z,70944
2019-04-07T10:27:54.747Z,69600
2019-04-07T10:29:08.799Z,70176
2019-04-07T10:30:22.885Z,67680
2019-04-07T10:31:36.903Z,67968
2019-04-07T10:32:50.948Z,68224
2019-04-07T10:34:05.033Z,70496
2019-04-07T10:35:19.053Z,37632
2019-04-07T10:36:33.507Z,72160
2019-04-07T10:39:01.204Z,68800
2019-04-07T10:40:15.235Z,70304
2019-04-07T10:41:29.295Z,73088
2019-04-07T10:42:43.359Z,72032
2019-04-07T10:43:57.484Z,74944
2019-04-07T10:45:11.429Z,72544
2019-04-07T10:46:25.481Z,74080
2019-04-07T10:47:39.621Z,74016
2019-04-07T10:48:53.576Z,72192
2019-04-07T10:50:07.679Z,73568
2019-04-07T10:51:21.650Z,75008
2019-04-07T10:52:35.722Z,76960
2019-04-07T10:53:49.733Z,72608
2019-04-07T10:55:03.769Z,74560
2019-04-07T10:56:17.800Z,76320
2019-04-07T10:57:31.989Z,74848
2019-04-07T10:58:45.986Z,70304
2019-04-07T10:59:59.985Z,76640
2019-04-07T11:01:14.039Z,76128
2019-04-07T11:02:27.982Z,79424
2019-04-07T11:03:42.004Z,74816
2019-04-07T11:04:56.100Z,74272
2019-04-07T11:06:10.142Z,76896
2019-04-07T11:07:24.142Z,75520
2019-04-07T11:08:38.177Z,78624
2019-04-07T11:09:52.215Z,79136
2019-04-07T11:11:06.365Z,77248
2019-04-07T11:12:20.343Z,79104
2019-04-07T11:13:34.292Z,83392
2019-04-07T11:14:48.334Z,79520
2019-04-07T11:16:02.328Z,81440
2019-04-07T11:17:16.386Z,80256
2019-04-07T11:18:30.440Z,79296
2019-04-07T11:19:44.547Z,81152
2019-04-07T11:20:58.501Z,82048
2019-04-07T11:22:12.515Z,74784
2019-04-07T11:23:26.554Z,87296
2019-04-07T11:24:40.608Z,87936
2019-04-07T11:25:54.633Z,33696
2019-04-07T11:27:08.691Z,60224
2019-04-07T11:28:22.797Z,82304
2019-04-07T11:29:36.791Z,38976
2019-04-07T11:30:50.799Z,87840
2019-04-07T11:32:04.871Z,82848
2019-04-07T11:33:19.137Z,40864
2019-04-07T11:34:32.964Z,63136
2019-04-07T11:35:47.036Z,31488
2019-04-07T11:37:01.108Z,76928
2019-04-07T11:38:15.251Z,28384
2019-04-07T11:39:29.261Z,27808
2019-04-07T11:40:43.334Z,74624
2019-04-07T11:41:57.533Z,83520
2019-04-07T11:43:11.628Z,68768
2019-04-07T11:44:25.535Z,32192
2019-04-07T11:45:39.607Z,81504
2019-04-07T11:46:53.663Z,30592
2019-04-07T11:48:07.751Z,85376
2019-04-07T11:49:21.808Z,84704
2019-04-07T11:50:36.715Z,85248
2019-04-07T11:51:49.900Z,80480
2019-04-07T11:53:03.947Z,76256
2019-04-07T11:54:18.027Z,82048
2019-04-07T11:55:32.062Z,86112
2019-04-07T11:56:46.270Z,83360
2019-04-07T11:58:00.179Z,84448
2019-04-07T11:59:14.287Z,86848
2019-04-07T12:00:28.555Z,81792
2019-04-07T12:01:42.351Z,82720
2019-04-07T12:02:56.393Z,81856
2019-04-07T12:04:10.448Z,86944
2019-04-07T12:05:24.517Z,86912
2019-04-07T12:06:38.542Z,89344
2019-04-07T12:07:52.688Z,89344
2019-04-07T12:09:06.738Z,92288
2019-04-07T12:10:20.682Z,94848
2019-04-07T12:11:34.715Z,93760
2019-04-07T12:12:49.235Z,91232
2019-04-07T12:14:02.855Z,51488
2019-04-07T12:15:16.861Z,87264
2019-04-07T12:16:30.872Z,31840
2019-04-07T12:17:44.918Z,81312
2019-04-07T12:18:58.972Z,83808
2019-04-07T12:20:13.011Z,83968
2019-04-07T12:21:27.101Z,90144
2019-04-07T12:22:41.117Z,90304
2019-04-07T12:23:55.172Z,81920
2019-04-07T12:25:09.260Z,87040
2019-04-07T12:26:23.385Z,85504
2019-04-07T12:27:37.311Z,85920
2019-04-07T12:28:51.388Z,61888
2019-04-07T12:30:05.457Z,87584
2019-04-07T12:31:19.446Z,92480
2019-04-07T12:32:33.522Z,91680
2019-04-07T12:33:47.594Z,89664
2019-04-07T12:35:01.661Z,90048
2019-04-07T12:36:15.888Z,88128
2019-04-07T12:37:34.275Z,90016
2019-04-07T12:38:43.762Z,91584
2019-04-07T12:39:57.824Z,93856
2019-04-07T12:41:11.910Z,93280
2019-04-07T12:42:25.948Z,95968
2019-04-07T12:43:39.982Z,95200
2019-04-07T12:44:54.112Z,95296
2019-04-07T12:46:08.160Z,94176
2019-04-07T12:48:36.139Z,93632
2019-04-07T12:49:50.275Z,93248
2019-04-07T12:51:04.251Z,93696
2019-04-07T12:52:19.250Z,90016
2019-04-07T12:53:32.465Z,87680
2019-04-07T12:54:48.547Z,85376
2019-04-07T12:56:01.509Z,85760
2019-04-07T12:57:14.522Z,79808
2019-04-07T12:59:42.591Z,79808
2019-04-07T13:00:56.669Z,82848
2019-04-07T13:02:10.754Z,83616
2019-04-07T13:03:24.802Z,90848
2019-04-07T13:04:38.859Z,96000
2019-04-07T13:05:52.897Z,92704
2019-04-07T13:07:08.205Z,91520
2019-04-07T13:08:21.027Z,90080
2019-04-07T13:09:35.045Z,87808
2019-04-07T13:10:49.097Z,84576
2019-04-07T13:12:03.227Z,26816
2019-04-07T13:13:17.322Z,87168
2019-04-07T13:14:31.354Z,29248
2019-04-07T13:15:45.429Z,83840
2019-04-07T13:16:59.428Z,91712
2019-04-07T13:18:13.477Z,88576
2019-04-07T13:19:30.697Z,54048
2019-04-07T13:20:41.822Z,93152
2019-04-07T13:21:55.684Z,87072
2019-04-07T13:23:09.739Z,85056
2019-04-07T13:24:23.803Z,31648
2019-04-07T13:25:37.870Z,28832
2019-04-07T13:26:52.014Z,28480
2019-04-07T13:28:06.008Z,76896
2019-04-07T13:29:20.154Z,83232
2019-04-07T13:30:34.173Z,86432
2019-04-07T13:31:48.231Z,63168
2019-04-07T13:33:02.474Z,86560
2019-04-07T13:34:16.411Z,34592
2019-04-07T13:35:30.458Z,85664
2019-04-07T13:36:44.818Z,61152
2019-04-07T13:37:58.661Z,75136
2019-04-07T13:39:12.708Z,27936
2019-04-07T13:40:26.773Z,81696
2019-04-07T13:41:40.897Z,62880
2019-04-07T13:42:55.022Z,82080
2019-04-07T13:44:09.043Z,80256
2019-04-07T13:45:23.092Z,58656
2019-04-07T13:46:37.178Z,27488
2019-04-07T13:47:51.555Z,73408
2019-04-07T13:49:05.393Z,33920
2019-04-07T13:50:19.430Z,64416
2019-04-07T13:51:33.524Z,48448
2019-04-07T13:52:47.693Z,70816
2019-04-07T13:54:01.859Z,74912
2019-04-07T13:55:15.815Z,83680
2019-04-07T13:56:29.964Z,83616
2019-04-07T13:57:43.971Z,81248
2019-04-07T13:58:58.127Z,81280
2019-04-07T14:00:12.128Z,74240
2019-04-07T14:01:26.213Z,72480
2019-04-07T14:02:43.411Z,74944
2019-04-07T14:03:56.188Z,73824
2019-04-07T14:05:08.488Z,74560
2019-04-07T14:06:22.456Z,77376
2019-04-07T14:07:36.577Z,75328
2019-04-07T14:08:50.675Z,75104
2019-04-07T14:10:04.673Z,76736
2019-04-07T14:11:19.248Z,77440
2019-04-07T14:12:32.889Z,75968
2019-04-07T14:13:46.908Z,77024
2019-04-07T14:15:00.936Z,75488
2019-04-07T14:16:15.032Z,76576
2019-04-07T14:17:29.093Z,74368
2019-04-07T14:18:43.171Z,73248
2019-04-07T14:19:57.486Z,76896
2019-04-07T14:21:11.302Z,77088
2019-04-07T14:22:25.523Z,78816
2019-04-07T14:23:39.436Z,79744
2019-04-07T14:24:53.525Z,81408
2019-04-07T14:26:07.656Z,81888
2019-04-07T14:27:21.769Z,78688
2019-04-07T14:28:35.744Z,72640
2019-04-07T14:29:49.816Z,54752
2019-04-07T14:31:03.886Z,66304
2019-04-07T14:32:17.913Z,61504
2019-04-07T14:33:31.967Z,28512
2019-04-07T14:34:46.050Z,25824
2019-04-07T14:36:00.128Z,28064
2019-04-07T14:37:14.590Z,60960
2019-04-07T14:38:28.296Z,54208
2019-04-07T14:39:42.350Z,54368
2019-04-07T14:40:56.455Z,53696
2019-04-07T14:42:10.533Z,43872
2019-04-07T14:43:24.623Z,55616
2019-04-07T14:44:38.662Z,45248
2019-04-07T14:45:52.773Z,42912
2019-04-07T14:47:06.881Z,25216
2019-04-07T14:48:20.991Z,44832
2019-04-07T14:49:35.108Z,28832
2019-04-07T14:50:49.109Z,58624
2019-04-07T14:52:03.197Z,59936
2019-04-07T14:53:17.291Z,60096
2019-04-07T14:54:31.362Z,58176
2019-04-07T14:55:49.112Z,58304
2019-04-07T14:57:01.122Z,58080
2019-04-07T14:58:13.869Z,58784
2019-04-07T14:59:27.684Z,58720
2019-04-07T15:00:41.811Z,58976
2019-04-07T15:01:56.247Z,57728
2019-04-07T15:03:09.994Z,56384
2019-04-07T15:04:23.984Z,55552
2019-04-07T15:05:38.051Z,52544
2019-04-07T15:06:52.137Z,43616
2019-04-07T15:08:06.189Z,22176
2019-04-07T15:09:20.344Z,46560
2019-04-07T15:10:34.390Z,41952
2019-04-07T15:11:48.506Z,48832
2019-04-07T15:13:02.556Z,51456
2019-04-07T15:14:16.639Z,56320
2019-04-07T15:15:30.777Z,53760
2019-04-07T15:16:44.860Z,54688
2019-04-07T15:17:58.925Z,55360
2019-04-07T15:19:12.972Z,52704
2019-04-07T15:20:27.109Z,50592
2019-04-07T15:21:41.254Z,50400
2019-04-07T15:22:55.262Z,49312
2019-04-07T15:24:09.322Z,49120
2019-04-07T15:25:23.397Z,48064
2019-04-07T15:26:37.512Z,46368
2019-04-07T15:27:51.595Z,46112
2019-04-07T15:29:05.749Z,42432
2019-04-07T15:30:19.739Z,41248
2019-04-07T15:31:33.881Z,41440
2019-04-07T15:32:47.999Z,43424
2019-04-07T15:34:01.998Z,43520
2019-04-07T15:35:16.146Z,42016
2019-04-07T15:36:30.302Z,39264
2019-04-07T15:37:44.272Z,38784
2019-04-07T15:38:58.341Z,40256
2019-04-07T15:40:12.439Z,40160
2019-04-07T15:41:26.636Z,37888
2019-04-07T15:42:40.601Z,37888
2019-04-07T15:43:54.664Z,38080
2019-04-07T15:45:08.807Z,39456
2019-04-07T15:46:22.834Z,40736
2019-04-07T15:47:36.896Z,39072
2019-04-07T15:48:51.045Z,37536
2019-04-07T15:50:05.073Z,35200
2019-04-07T15:51:19.205Z,30848
2019-04-07T15:52:33.284Z,26336
2019-04-07T15:53:47.354Z,25184
2019-04-07T15:55:01.451Z,25504
2019-04-07T15:56:15.664Z,25600
2019-04-07T15:57:29.642Z,25760
2019-04-07T15:58:43.796Z,25728
2019-04-07T15:59:57.911Z,24832
2019-04-07T16:01:12.064Z,23648
2019-04-07T16:02:26.004Z,21856
2019-04-07T16:03:40.209Z,20384
2019-04-07T16:04:54.348Z,18272
2019-04-07T16:06:08.296Z,15984
2019-04-07T16:07:22.397Z,16960
2019-04-07T16:08:36.549Z,16704
2019-04-07T16:09:50.557Z,14320
2019-04-07T16:11:04.787Z,13436
2019-04-07T16:12:18.770Z,12804
2019-04-07T16:13:32.892Z,12460
2019-04-07T16:14:46.983Z,12400
2019-04-07T16:16:01.110Z,12452
2019-04-07T16:17:15.195Z,12700
2019-04-07T16:18:29.318Z,13408
2019-04-07T16:19:43.445Z,11488
2019-04-07T16:20:57.560Z,11048
2019-04-07T16:22:11.667Z,11588
2019-04-07T16:23:25.804Z,10812
2019-04-07T16:24:40.081Z,13432
2019-04-07T16:27:08.255Z,11456
2019-04-07T16:28:22.287Z,11428
2019-04-07T16:29:36.444Z,9976
2019-04-07T16:30:50.516Z,9280
2019-04-07T16:32:04.634Z,9044
2019-04-07T16:33:18.762Z,9048
2019-04-07T16:34:32.940Z,8984
2019-04-07T16:35:47.014Z,8436
2019-04-07T16:37:01.159Z,8488
2019-04-07T16:38:15.310Z,8000
2019-04-07T16:39:29.384Z,7968
2019-04-07T16:40:43.593Z,8056
2019-04-07T16:41:57.651Z,8204
2019-04-07T16:43:11.784Z,8288